sensor_id;sensor_type;location;lat;lon;timestamp;P1;durP1;ratioP1;P2;durP2;ratioP2
19836;SDS011;10079;55.740;37.662;2022-07-06T00:02:19;21.63;;;17.33;;
19836;SDS011;10079;55.740;37.662;2022-07-06T00:05:03;20.10;;;16.77;;
19836;SDS011;10079;55.740;37.662;2022-07-06T00:07:44;21.57;;;17.23;;
19836;SDS011;10079;55.740;37.662;2022-07-06T00:10:28;20.40;;;16.47;;
19836;SDS011;10079;55.740;37.662;2022-07-06T00:13:09;19.97;;;17.43;;
19836;SDS011;10079;55.740;37.662;2022-07-06T00:15:51;19.20;;;15.90;;
19836;SDS011;10079;55.740;37.662;2022-07-06T00:18:32;21.60;;;17.13;;
19836;SDS011;10079;55.740;37.662;2022-07-06T00:21:25;18.47;;;16.33;;
19836;SDS011;10079;55.740;37.662;2022-07-06T00:24:06;19.60;;;16.40;;
19836;SDS011;10079;55.740;37.662;2022-07-06T00:26:48;20.63;;;17.23;;
19836;SDS011;10079;55.740;37.662;2022-07-06T00:29:29;19.97;;;17.53;;
19836;SDS011;10079;55.740;37.662;2022-07-06T00:32:11;23.03;;;17.07;;
19836;SDS011;10079;55.740;37.662;2022-07-06T00:34:52;20.87;;;17.77;;
19836;SDS011;10079;55.740;37.662;2022-07-06T00:37:33;19.17;;;17.07;;
19836;SDS011;10079;55.740;37.662;2022-07-06T00:40:14;20.40;;;16.87;;
19836;SDS011;10079;55.740;37.662;2022-07-06T00:42:56;21.23;;;16.87;;
19836;SDS011;10079;55.740;37.662;2022-07-06T00:45:37;19.73;;;17.37;;
19836;SDS011;10079;55.740;37.662;2022-07-06T00:48:18;21.90;;;17.13;;
19836;SDS011;10079;55.740;37.662;2022-07-06T00:50:59;22.20;;;17.97;;
19836;SDS011;10079;55.740;37.662;2022-07-06T00:53:41;21.53;;;16.63;;
19836;SDS011;10079;55.740;37.662;2022-07-06T00:56:26;23.60;;;18.23;;
19836;SDS011;10079;55.740;37.662;2022-07-06T00:59:18;20.60;;;18.40;;
19836;SDS011;10079;55.740;37.662;2022-07-06T01:02:11;22.57;;;18.60;;
19836;SDS011;10079;55.740;37.662;2022-07-06T01:05:04;21.13;;;17.37;;
19836;SDS011;10079;55.740;37.662;2022-07-06T01:29:21;19.43;;;17.43;;
19836;SDS011;10079;55.740;37.662;2022-07-06T01:32:11;20.47;;;17.20;;
19836;SDS011;10079;55.740;37.662;2022-07-06T01:35:07;20.30;;;16.27;;
19836;SDS011;10079;55.740;37.662;2022-07-06T01:37:48;21.03;;;17.27;;
19836;SDS011;10079;55.740;37.662;2022-07-06T01:40:32;20.03;;;16.80;;
19836;SDS011;10079;55.740;37.662;2022-07-06T01:43:16;18.80;;;16.40;;
19836;SDS011;10079;55.740;37.662;2022-07-06T01:46:01;18.27;;;16.37;;
19836;SDS011;10079;55.740;37.662;2022-07-06T01:48:45;18.73;;;15.80;;
19836;SDS011;10079;55.740;37.662;2022-07-06T01:51:26;20.43;;;16.97;;
19836;SDS011;10079;55.740;37.662;2022-07-06T01:54:10;19.33;;;16.00;;
19836;SDS011;10079;55.740;37.662;2022-07-06T01:56:51;20.10;;;16.73;;
19836;SDS011;10079;55.740;37.662;2022-07-06T01:59:36;19.70;;;16.93;;
19836;SDS011;10079;55.740;37.662;2022-07-06T02:02:25;19.73;;;16.20;;
19836;SDS011;10079;55.740;37.662;2022-07-06T02:05:07;18.97;;;16.67;;
19836;SDS011;10079;55.740;37.662;2022-07-06T02:07:51;22.47;;;17.30;;
19836;SDS011;10079;55.740;37.662;2022-07-06T02:10:36;19.43;;;16.40;;
19836;SDS011;10079;55.740;37.662;2022-07-06T02:13:17;19.13;;;16.27;;
19836;SDS011;10079;55.740;37.662;2022-07-06T02:15:57;17.80;;;15.90;;
19836;SDS011;10079;55.740;37.662;2022-07-06T02:18:42;19.13;;;16.17;;
19836;SDS011;10079;55.740;37.662;2022-07-06T02:21:26;18.07;;;15.80;;
19836;SDS011;10079;55.740;37.662;2022-07-06T02:24:16;20.00;;;15.70;;
19836;SDS011;10079;55.740;37.662;2022-07-06T02:27:05;19.97;;;16.93;;
19836;SDS011;10079;55.740;37.662;2022-07-06T02:29:55;18.87;;;16.80;;
19836;SDS011;10079;55.740;37.662;2022-07-06T02:32:36;19.10;;;16.40;;
19836;SDS011;10079;55.740;37.662;2022-07-06T02:35:20;21.13;;;17.43;;
19836;SDS011;10079;55.740;37.662;2022-07-06T02:38:04;21.80;;;17.13;;
19836;SDS011;10079;55.740;37.662;2022-07-06T02:40:45;21.03;;;17.23;;
19836;SDS011;10079;55.740;37.662;2022-07-06T02:43:27;22.37;;;16.73;;
19836;SDS011;10079;55.740;37.662;2022-07-06T02:46:08;19.90;;;16.47;;
19836;SDS011;10079;55.740;37.662;2022-07-06T02:48:52;20.30;;;17.27;;
19836;SDS011;10079;55.740;37.662;2022-07-06T02:51:33;20.07;;;17.40;;
19836;SDS011;10079;55.740;37.662;2022-07-06T02:54:17;19.90;;;16.43;;
19836;SDS011;10079;55.740;37.662;2022-07-06T02:56:59;21.80;;;16.43;;
19836;SDS011;10079;55.740;37.662;2022-07-06T02:59:40;19.17;;;16.07;;
19836;SDS011;10079;55.740;37.662;2022-07-06T03:02:21;21.00;;;17.10;;
19836;SDS011;10079;55.740;37.662;2022-07-06T03:05:03;19.40;;;16.50;;
19836;SDS011;10079;55.740;37.662;2022-07-06T03:07:45;21.70;;;17.00;;
19836;SDS011;10079;55.740;37.662;2022-07-06T03:10:26;19.43;;;17.07;;
19836;SDS011;10079;55.740;37.662;2022-07-06T03:13:07;21.20;;;17.87;;
19836;SDS011;10079;55.740;37.662;2022-07-06T03:15:49;19.43;;;16.73;;
19836;SDS011;10079;55.740;37.662;2022-07-06T03:18:30;19.83;;;16.55;;
19836;SDS011;10079;55.740;37.662;2022-07-06T03:21:11;19.87;;;16.20;;
19836;SDS011;10079;55.740;37.662;2022-07-06T03:23:52;18.08;;;16.15;;
19836;SDS011;10079;55.740;37.662;2022-07-06T03:26:33;18.08;;;16.17;;
19836;SDS011;10079;55.740;37.662;2022-07-06T03:29:15;18.33;;;16.00;;
19836;SDS011;10079;55.740;37.662;2022-07-06T03:31:59;16.45;;;14.73;;
19836;SDS011;10079;55.740;37.662;2022-07-06T03:34:40;17.00;;;15.40;;
19836;SDS011;10079;55.740;37.662;2022-07-06T03:37:21;17.73;;;15.27;;
19836;SDS011;10079;55.740;37.662;2022-07-06T03:40:03;17.15;;;15.35;;
19836;SDS011;10079;55.740;37.662;2022-07-06T03:42:45;17.27;;;15.65;;
19836;SDS011;10079;55.740;37.662;2022-07-06T03:45:26;19.17;;;15.25;;
19836;SDS011;10079;55.740;37.662;2022-07-06T03:48:10;17.87;;;15.98;;
19836;SDS011;10079;55.740;37.662;2022-07-06T03:50:51;16.15;;;14.55;;
19836;SDS011;10079;55.740;37.662;2022-07-06T03:53:32;15.50;;;13.93;;
19836;SDS011;10079;55.740;37.662;2022-07-06T03:56:14;16.35;;;14.60;;
19836;SDS011;10079;55.740;37.662;2022-07-06T03:58:56;17.95;;;15.05;;
19836;SDS011;10079;55.740;37.662;2022-07-06T04:01:36;16.85;;;15.15;;
19836;SDS011;10079;55.740;37.662;2022-07-06T04:04:17;15.50;;;14.10;;
19836;SDS011;10079;55.740;37.662;2022-07-06T04:06:58;17.10;;;15.32;;
19836;SDS011;10079;55.740;37.662;2022-07-06T04:09:53;17.90;;;15.10;;
19836;SDS011;10079;55.740;37.662;2022-07-06T04:12:39;17.40;;;15.25;;
19836;SDS011;10079;55.740;37.662;2022-07-06T04:15:21;17.58;;;15.63;;
19836;SDS011;10079;55.740;37.662;2022-07-06T04:18:06;16.87;;;15.18;;
19836;SDS011;10079;55.740;37.662;2022-07-06T04:20:50;16.83;;;15.15;;
19836;SDS011;10079;55.740;37.662;2022-07-06T04:23:44;17.10;;;15.40;;
19836;SDS011;10079;55.740;37.662;2022-07-06T04:26:36;18.10;;;16.30;;
19836;SDS011;10079;55.740;37.662;2022-07-06T04:29:17;15.95;;;14.45;;
19836;SDS011;10079;55.740;37.662;2022-07-06T04:42:57;19.23;;;16.20;;
19836;SDS011;10079;55.740;37.662;2022-07-06T04:45:47;17.58;;;15.88;;
19836;SDS011;10079;55.740;37.662;2022-07-06T04:48:40;17.30;;;15.50;;
19836;SDS011;10079;55.740;37.662;2022-07-06T04:51:32;15.05;;;13.70;;
19836;SDS011;10079;55.740;37.662;2022-07-06T04:54:16;13.57;;;12.37;;
19836;SDS011;10079;55.740;37.662;2022-07-06T04:57:01;13.00;;;11.90;;
19836;SDS011;10079;55.740;37.662;2022-07-06T04:59:42;13.80;;;12.40;;
19836;SDS011;10079;55.740;37.662;2022-07-06T05:13:06;17.80;;;16.08;;
19836;SDS011;10079;55.740;37.662;2022-07-06T05:15:50;16.80;;;15.30;;
19836;SDS011;10079;55.740;37.662;2022-07-06T05:29:14;18.23;;;16.52;;
19836;SDS011;10079;55.740;37.662;2022-07-06T05:31:55;16.52;;;14.95;;
19836;SDS011;10079;55.740;37.662;2022-07-06T05:34:39;16.70;;;15.20;;
19836;SDS011;10079;55.740;37.662;2022-07-06T05:37:23;15.25;;;13.85;;
19836;SDS011;10079;55.740;37.662;2022-07-06T05:40:05;14.85;;;13.45;;
19836;SDS011;10079;55.740;37.662;2022-07-06T05:42:47;14.43;;;13.23;;
19836;SDS011;10079;55.740;37.662;2022-07-06T05:45:28;14.87;;;13.48;;
19836;SDS011;10079;55.740;37.662;2022-07-06T05:48:18;13.00;;;11.80;;
19836;SDS011;10079;55.740;37.662;2022-07-06T05:51:02;12.60;;;11.43;;
19836;SDS011;10079;55.740;37.662;2022-07-06T05:53:43;12.30;;;11.10;;
19836;SDS011;10079;55.740;37.662;2022-07-06T05:56:25;13.55;;;12.35;;
19836;SDS011;10079;55.740;37.662;2022-07-06T05:59:14;12.60;;;11.60;;
19836;SDS011;10079;55.740;37.662;2022-07-06T06:01:55;11.57;;;10.52;;
19836;SDS011;10079;55.740;37.662;2022-07-06T06:15:19;11.82;;;10.82;;
19836;SDS011;10079;55.740;37.662;2022-07-06T06:18:00;10.85;;;9.95;;
19836;SDS011;10079;55.740;37.662;2022-07-06T06:20:41;11.65;;;10.43;;
19836;SDS011;10079;55.740;37.662;2022-07-06T06:23:22;11.80;;;10.82;;
19836;SDS011;10079;55.740;37.662;2022-07-06T06:26:04;10.43;;;9.70;;
19836;SDS011;10079;55.740;37.662;2022-07-06T06:28:53;12.55;;;11.48;;
19836;SDS011;10079;55.740;37.662;2022-07-06T06:31:46;12.23;;;11.12;;
19836;SDS011;10079;55.740;37.662;2022-07-06T06:34:36;12.43;;;11.23;;
19836;SDS011;10079;55.740;37.662;2022-07-06T06:37:25;12.13;;;10.82;;
19836;SDS011;10079;55.740;37.662;2022-07-06T06:40:07;11.88;;;10.68;;
19836;SDS011;10079;55.740;37.662;2022-07-06T06:42:49;10.52;;;9.57;;
19836;SDS011;10079;55.740;37.662;2022-07-06T06:45:31;11.00;;;10.00;;
19836;SDS011;10079;55.740;37.662;2022-07-06T06:58:43;11.80;;;10.80;;
19836;SDS011;10079;55.740;37.662;2022-07-06T07:01:24;12.25;;;11.05;;
19836;SDS011;10079;55.740;37.662;2022-07-06T07:04:05;12.13;;;11.02;;
19836;SDS011;10079;55.740;37.662;2022-07-06T07:06:47;11.07;;;10.18;;
19836;SDS011;10079;55.740;37.662;2022-07-06T07:09:31;12.55;;;11.45;;
19836;SDS011;10079;55.740;37.662;2022-07-06T07:12:12;16.70;;;13.02;;
19836;SDS011;10079;55.740;37.662;2022-07-06T07:14:56;15.13;;;13.82;;
19836;SDS011;10079;55.740;37.662;2022-07-06T07:17:41;12.55;;;11.35;;
19836;SDS011;10079;55.740;37.662;2022-07-06T07:20:22;17.30;;;15.15;;
19836;SDS011;10079;55.740;37.662;2022-07-06T07:23:03;13.55;;;12.25;;
19836;SDS011;10079;55.740;37.662;2022-07-06T07:25:44;15.95;;;14.35;;
19836;SDS011;10079;55.740;37.662;2022-07-06T07:28:27;13.32;;;12.23;;
19836;SDS011;10079;55.740;37.662;2022-07-06T07:31:09;14.38;;;12.88;;
19836;SDS011;10079;55.740;37.662;2022-07-06T07:33:50;20.98;;;19.10;;
19836;SDS011;10079;55.740;37.662;2022-07-06T07:36:31;12.63;;;11.40;;
19836;SDS011;10079;55.740;37.662;2022-07-06T07:39:12;14.98;;;13.57;;
19836;SDS011;10079;55.740;37.662;2022-07-06T07:41:53;16.58;;;14.87;;
19836;SDS011;10079;55.740;37.662;2022-07-06T07:44:35;18.35;;;16.42;;
19836;SDS011;10079;55.740;37.662;2022-07-06T07:47:19;20.08;;;17.00;;
19836;SDS011;10079;55.740;37.662;2022-07-06T07:50:00;18.23;;;15.90;;
19836;SDS011;10079;55.740;37.662;2022-07-06T07:52:41;20.65;;;18.45;;
19836;SDS011;10079;55.740;37.662;2022-07-06T07:55:22;16.05;;;14.45;;
19836;SDS011;10079;55.740;37.662;2022-07-06T07:58:04;17.27;;;15.57;;
19836;SDS011;10079;55.740;37.662;2022-07-06T08:00:48;17.35;;;15.50;;
19836;SDS011;10079;55.740;37.662;2022-07-06T08:03:38;16.87;;;14.85;;
19836;SDS011;10079;55.740;37.662;2022-07-06T08:06:19;14.00;;;12.60;;
19836;SDS011;10079;55.740;37.662;2022-07-06T08:09:12;16.98;;;15.23;;
19836;SDS011;10079;55.740;37.662;2022-07-06T08:11:53;12.43;;;11.12;;
19836;SDS011;10079;55.740;37.662;2022-07-06T08:25:05;13.85;;;12.52;;
19836;SDS011;10079;55.740;37.662;2022-07-06T08:27:51;12.05;;;10.90;;
19836;SDS011;10079;55.740;37.662;2022-07-06T08:30:35;11.43;;;10.40;;
19836;SDS011;10079;55.740;37.662;2022-07-06T08:33:19;13.00;;;11.65;;
19836;SDS011;10079;55.740;37.662;2022-07-06T08:36:12;12.27;;;11.18;;
19836;SDS011;10079;55.740;37.662;2022-07-06T08:38:56;11.70;;;10.60;;
19836;SDS011;10079;55.740;37.662;2022-07-06T08:41:49;11.95;;;10.82;;
19836;SDS011;10079;55.740;37.662;2022-07-06T08:44:41;11.25;;;10.35;;
19836;SDS011;10079;55.740;37.662;2022-07-06T08:47:23;12.80;;;11.50;;
19836;SDS011;10079;55.740;37.662;2022-07-06T08:50:07;12.35;;;11.15;;
19836;SDS011;10079;55.740;37.662;2022-07-06T08:52:53;12.23;;;11.20;;
19836;SDS011;10079;55.740;37.662;2022-07-06T08:55:34;16.73;;;11.82;;
19836;SDS011;10079;55.740;37.662;2022-07-06T08:58:18;14.43;;;11.65;;
19836;SDS011;10079;55.740;37.662;2022-07-06T09:01:11;12.75;;;11.65;;
19836;SDS011;10079;55.740;37.662;2022-07-06T09:04:05;11.88;;;10.68;;
19836;SDS011;10079;55.740;37.662;2022-07-06T09:06:56;12.25;;;11.12;;
19836;SDS011;10079;55.740;37.662;2022-07-06T09:09:40;12.18;;;11.07;;
19836;SDS011;10079;55.740;37.662;2022-07-06T09:12:33;11.90;;;10.80;;
19836;SDS011;10079;55.740;37.662;2022-07-06T09:15:17;12.98;;;11.88;;
19836;SDS011;10079;55.740;37.662;2022-07-06T09:17:59;11.43;;;10.43;;
19836;SDS011;10079;55.740;37.662;2022-07-06T09:20:51;11.93;;;10.82;;
19836;SDS011;10079;55.740;37.662;2022-07-06T09:23:33;13.10;;;11.95;;
19836;SDS011;10079;55.740;37.662;2022-07-06T09:26:17;11.77;;;10.75;;
19836;SDS011;10079;55.740;37.662;2022-07-06T09:29:10;13.05;;;11.95;;
19836;SDS011;10079;55.740;37.662;2022-07-06T09:32:03;12.82;;;11.73;;
19836;SDS011;10079;55.740;37.662;2022-07-06T09:34:45;14.15;;;12.23;;
19836;SDS011;10079;55.740;37.662;2022-07-06T09:37:29;11.98;;;10.88;;
19836;SDS011;10079;55.740;37.662;2022-07-06T09:40:16;12.02;;;10.85;;
19836;SDS011;10079;55.740;37.662;2022-07-06T09:43:07;12.45;;;11.27;;
19836;SDS011;10079;55.740;37.662;2022-07-06T09:45:50;12.73;;;11.63;;
19836;SDS011;10079;55.740;37.662;2022-07-06T09:48:30;13.10;;;11.98;;
19836;SDS011;10079;55.740;37.662;2022-07-06T09:51:14;12.40;;;11.25;;
19836;SDS011;10079;55.740;37.662;2022-07-06T09:53:58;12.85;;;11.75;;
19836;SDS011;10079;55.740;37.662;2022-07-06T09:56:40;12.50;;;11.30;;
19836;SDS011;10079;55.740;37.662;2022-07-06T09:59:22;12.60;;;11.40;;
19836;SDS011;10079;55.740;37.662;2022-07-06T10:02:03;13.93;;;12.55;;
19836;SDS011;10079;55.740;37.662;2022-07-06T10:04:45;16.98;;;15.38;;
19836;SDS011;10079;55.740;37.662;2022-07-06T10:07:26;12.98;;;11.85;;
19836;SDS011;10079;55.740;37.662;2022-07-06T10:10:08;13.23;;;12.13;;
19836;SDS011;10079;55.740;37.662;2022-07-06T10:12:49;13.82;;;12.02;;
19836;SDS011;10079;55.740;37.662;2022-07-06T10:15:44;13.88;;;12.77;;
19836;SDS011;10079;55.740;37.662;2022-07-06T10:18:25;14.50;;;13.20;;
19836;SDS011;10079;55.740;37.662;2022-07-06T10:21:15;14.70;;;13.25;;
19836;SDS011;10079;55.740;37.662;2022-07-06T10:23:59;12.98;;;11.77;;
19836;SDS011;10079;55.740;37.662;2022-07-06T10:26:52;13.73;;;12.52;;
19836;SDS011;10079;55.740;37.662;2022-07-06T10:29:33;13.90;;;12.68;;
19836;SDS011;10079;55.740;37.662;2022-07-06T10:32:16;13.40;;;12.27;;
19836;SDS011;10079;55.740;37.662;2022-07-06T10:34:57;13.52;;;12.18;;
19836;SDS011;10079;55.740;37.662;2022-07-06T10:37:38;12.57;;;11.45;;
19836;SDS011;10079;55.740;37.662;2022-07-06T10:40:19;14.05;;;12.55;;
19836;SDS011;10079;55.740;37.662;2022-07-06T10:43:04;12.80;;;11.32;;
19836;SDS011;10079;55.740;37.662;2022-07-06T10:45:50;13.50;;;12.40;;
19836;SDS011;10079;55.740;37.662;2022-07-06T10:48:43;12.35;;;11.15;;
19836;SDS011;10079;55.740;37.662;2022-07-06T10:51:24;11.90;;;10.88;;
19836;SDS011;10079;55.740;37.662;2022-07-06T10:54:14;13.20;;;11.95;;
19836;SDS011;10079;55.740;37.662;2022-07-06T10:56:58;13.75;;;12.25;;
19836;SDS011;10079;55.740;37.662;2022-07-06T10:59:39;14.50;;;12.95;;
19836;SDS011;10079;55.740;37.662;2022-07-06T11:02:37;12.73;;;11.60;;
19836;SDS011;10079;55.740;37.662;2022-07-06T11:05:40;13.52;;;12.23;;
19836;SDS011;10079;55.740;37.662;2022-07-06T11:08:20;14.15;;;12.77;;
19836;SDS011;10079;55.740;37.662;2022-07-06T11:13:58;13.60;;;12.32;;
19836;SDS011;10079;55.740;37.662;2022-07-06T11:19:49;12.77;;;11.57;;
19836;SDS011;10079;55.740;37.662;2022-07-06T11:22:31;13.02;;;11.73;;
19836;SDS011;10079;55.740;37.662;2022-07-06T11:25:12;12.70;;;11.55;;
19836;SDS011;10079;55.740;37.662;2022-07-06T11:27:53;12.37;;;11.27;;
19836;SDS011;10079;55.740;37.662;2022-07-06T11:30:35;13.10;;;11.80;;
19836;SDS011;10079;55.740;37.662;2022-07-06T11:36:15;12.88;;;11.77;;
19836;SDS011;10079;55.740;37.662;2022-07-06T11:38:59;12.10;;;10.90;;
19836;SDS011;10079;55.740;37.662;2022-07-06T11:47:02;12.02;;;10.95;;
19836;SDS011;10079;55.740;37.662;2022-07-06T11:57:47;12.05;;;10.95;;
19836;SDS011;10079;55.740;37.662;2022-07-06T12:00:28;11.00;;;10.10;;
19836;SDS011;10079;55.740;37.662;2022-07-06T12:03:15;13.30;;;12.00;;
19836;SDS011;10079;55.740;37.662;2022-07-06T12:16:34;12.55;;;11.35;;
19836;SDS011;10079;55.740;37.662;2022-07-06T12:19:15;12.25;;;11.12;;
19836;SDS011;10079;55.740;37.662;2022-07-06T12:22:00;12.27;;;11.12;;
19836;SDS011;10079;55.740;37.662;2022-07-06T12:24:44;12.65;;;11.48;;
19836;SDS011;10079;55.740;37.662;2022-07-06T12:27:36;14.27;;;12.73;;
19836;SDS011;10079;55.740;37.662;2022-07-06T12:30:18;12.88;;;11.48;;
19836;SDS011;10079;55.740;37.662;2022-07-06T12:35:56;13.68;;;11.93;;
19836;SDS011;10079;55.740;37.662;2022-07-06T12:38:44;12.10;;;10.90;;
19836;SDS011;10079;55.740;37.662;2022-07-06T12:41:34;12.55;;;11.35;;
19836;SDS011;10079;55.740;37.662;2022-07-06T12:44:16;11.65;;;10.57;;
19836;SDS011;10079;55.740;37.662;2022-07-06T12:47:03;12.68;;;11.48;;
19836;SDS011;10079;55.740;37.662;2022-07-06T12:49:46;13.65;;;11.30;;
19836;SDS011;10079;55.740;37.662;2022-07-06T12:52:30;12.45;;;11.25;;
19836;SDS011;10079;55.740;37.662;2022-07-06T12:55:15;13.32;;;12.02;;
19836;SDS011;10079;55.740;37.662;2022-07-06T13:08:32;14.38;;;12.98;;
19836;SDS011;10079;55.740;37.662;2022-07-06T13:11:14;13.65;;;12.32;;
19836;SDS011;10079;55.740;37.662;2022-07-06T13:14:03;12.55;;;11.35;;
19836;SDS011;10079;55.740;37.662;2022-07-06T13:16:53;12.50;;;11.30;;
19836;SDS011;10079;55.740;37.662;2022-07-06T13:19:37;13.45;;;11.70;;
19836;SDS011;10079;55.740;37.662;2022-07-06T13:22:21;12.68;;;11.45;;
19836;SDS011;10079;55.740;37.662;2022-07-06T13:25:11;12.30;;;11.00;;
19836;SDS011;10079;55.740;37.662;2022-07-06T13:27:52;13.18;;;11.23;;
19836;SDS011;10079;55.740;37.662;2022-07-06T13:30:34;11.77;;;10.68;;
19836;SDS011;10079;55.740;37.662;2022-07-06T13:33:18;12.27;;;10.88;;
19836;SDS011;10079;55.740;37.662;2022-07-06T13:36:00;11.98;;;10.88;;
19836;SDS011;10079;55.740;37.662;2022-07-06T13:38:40;12.25;;;11.15;;
19836;SDS011;10079;55.740;37.662;2022-07-06T13:41:21;12.88;;;11.52;;
19836;SDS011;10079;55.740;37.662;2022-07-06T13:44:06;12.73;;;11.50;;
19836;SDS011;10079;55.740;37.662;2022-07-06T13:46:47;13.20;;;11.98;;
19836;SDS011;10079;55.740;37.662;2022-07-06T13:49:31;13.30;;;11.90;;
19836;SDS011;10079;55.740;37.662;2022-07-06T13:52:24;12.80;;;11.60;;
19836;SDS011;10079;55.740;37.662;2022-07-06T13:55:06;12.88;;;11.70;;
19836;SDS011;10079;55.740;37.662;2022-07-06T13:57:48;13.52;;;11.68;;
19836;SDS011;10079;55.740;37.662;2022-07-06T14:00:29;12.55;;;11.35;;
19836;SDS011;10079;55.740;37.662;2022-07-06T14:03:20;12.63;;;11.52;;
19836;SDS011;10079;55.740;37.662;2022-07-06T14:06:05;12.85;;;11.55;;
19836;SDS011;10079;55.740;37.662;2022-07-06T14:08:47;13.32;;;11.82;;
19836;SDS011;10079;55.740;37.662;2022-07-06T14:11:28;13.68;;;12.40;;
19836;SDS011;10079;55.740;37.662;2022-07-06T14:14:10;13.50;;;11.65;;
19836;SDS011;10079;55.740;37.662;2022-07-06T14:16:51;16.00;;;11.65;;
19836;SDS011;10079;55.740;37.662;2022-07-06T14:19:33;12.20;;;11.00;;
19836;SDS011;10079;55.740;37.662;2022-07-06T14:22:15;12.73;;;11.43;;
19836;SDS011;10079;55.740;37.662;2022-07-06T14:24:56;17.85;;;12.75;;
19836;SDS011;10079;55.740;37.662;2022-07-06T14:27:46;14.95;;;13.55;;
19836;SDS011;10079;55.740;37.662;2022-07-06T14:30:30;13.90;;;12.45;;
19836;SDS011;10079;55.740;37.662;2022-07-06T14:33:12;13.80;;;12.45;;
19836;SDS011;10079;55.740;37.662;2022-07-06T14:35:53;15.05;;;12.13;;
19836;SDS011;10079;55.740;37.662;2022-07-06T14:38:37;13.70;;;12.32;;
19836;SDS011;10079;55.740;37.662;2022-07-06T14:41:30;13.90;;;12.55;;
19836;SDS011;10079;55.740;37.662;2022-07-06T14:44:11;12.90;;;11.57;;
19836;SDS011;10079;55.740;37.662;2022-07-06T14:46:52;13.55;;;12.25;;
19836;SDS011;10079;55.740;37.662;2022-07-06T14:49:33;12.27;;;11.18;;
19836;SDS011;10079;55.740;37.662;2022-07-06T14:52:14;12.27;;;11.10;;
19836;SDS011;10079;55.740;37.662;2022-07-06T14:54:56;13.20;;;11.75;;
19836;SDS011;10079;55.740;37.662;2022-07-06T14:57:37;13.62;;;12.27;;
19836;SDS011;10079;55.740;37.662;2022-07-06T15:00:18;12.52;;;11.38;;
19836;SDS011;10079;55.740;37.662;2022-07-06T15:02:59;13.27;;;11.98;;
19836;SDS011;10079;55.740;37.662;2022-07-06T15:05:43;14.43;;;12.18;;
19836;SDS011;10079;55.740;37.662;2022-07-06T15:08:25;13.40;;;11.80;;
19836;SDS011;10079;55.740;37.662;2022-07-06T15:11:06;11.70;;;10.40;;
19836;SDS011;10079;55.740;37.662;2022-07-06T15:13:49;11.05;;;9.95;;
19836;SDS011;10079;55.740;37.662;2022-07-06T15:16:30;12.00;;;9.60;;
19836;SDS011;10079;55.740;37.662;2022-07-06T15:19:14;11.95;;;10.50;;
19836;SDS011;10079;55.740;37.662;2022-07-06T15:22:04;11.90;;;10.10;;
19836;SDS011;10079;55.740;37.662;2022-07-06T15:34:37;11.88;;;10.32;;
19836;SDS011;10079;55.740;37.662;2022-07-06T15:37:26;12.20;;;10.57;;
19836;SDS011;10079;55.740;37.662;2022-07-06T15:40:11;13.60;;;10.70;;
19836;SDS011;10079;55.740;37.662;2022-07-06T15:42:52;11.43;;;10.45;;
19836;SDS011;10079;55.740;37.662;2022-07-06T15:45:36;11.12;;;10.10;;
19836;SDS011;10079;55.740;37.662;2022-07-06T16:09:40;13.35;;;12.05;;
19836;SDS011;10079;55.740;37.662;2022-07-06T16:12:25;13.98;;;12.60;;
19836;SDS011;10079;55.740;37.662;2022-07-06T16:15:06;13.62;;;12.23;;
19836;SDS011;10079;55.740;37.662;2022-07-06T16:18:00;13.75;;;12.35;;
19836;SDS011;10079;55.740;37.662;2022-07-06T16:20:44;14.38;;;12.85;;
19836;SDS011;10079;55.740;37.662;2022-07-06T16:23:29;14.15;;;12.37;;
19836;SDS011;10079;55.740;37.662;2022-07-06T16:26:13;14.07;;;12.68;;
19836;SDS011;10079;55.740;37.662;2022-07-06T16:28:58;15.52;;;13.80;;
19836;SDS011;10079;55.740;37.662;2022-07-06T16:42:13;14.23;;;12.93;;
19836;SDS011;10079;55.740;37.662;2022-07-06T16:55:50;12.60;;;11.50;;
19836;SDS011;10079;55.740;37.662;2022-07-06T17:09:19;8.93;;;8.02;;
19836;SDS011;10079;55.740;37.662;2022-07-06T17:12:03;9.57;;;8.18;;
19836;SDS011;10079;55.740;37.662;2022-07-06T17:14:46;8.63;;;7.70;;
19836;SDS011;10079;55.740;37.662;2022-07-06T17:17:30;8.02;;;7.22;;
19836;SDS011;10079;55.740;37.662;2022-07-06T17:20:11;8.25;;;6.87;;
19836;SDS011;10079;55.740;37.662;2022-07-06T17:23:04;8.43;;;6.75;;
19836;SDS011;10079;55.740;37.662;2022-07-06T17:25:45;8.07;;;6.45;;
19836;SDS011;10079;55.740;37.662;2022-07-06T17:28:26;8.77;;;6.15;;
19836;SDS011;10079;55.740;37.662;2022-07-06T17:31:08;7.22;;;5.90;;
19836;SDS011;10079;55.740;37.662;2022-07-06T17:33:52;8.18;;;5.93;;
19836;SDS011;10079;55.740;37.662;2022-07-06T17:36:33;6.70;;;5.85;;
19836;SDS011;10079;55.740;37.662;2022-07-06T17:39:17;7.33;;;6.23;;
19836;SDS011;10079;55.740;37.662;2022-07-06T17:41:59;6.87;;;6.17;;
19836;SDS011;10079;55.740;37.662;2022-07-06T17:44:41;7.80;;;6.07;;
19836;SDS011;10079;55.740;37.662;2022-07-06T17:47:35;8.00;;;6.37;;
19836;SDS011;10079;55.740;37.662;2022-07-06T17:50:17;6.80;;;6.10;;
19836;SDS011;10079;55.740;37.662;2022-07-06T17:52:58;7.27;;;6.50;;
19836;SDS011;10079;55.740;37.662;2022-07-06T17:55:42;7.33;;;6.63;;
19836;SDS011;10079;55.740;37.662;2022-07-06T17:58:25;7.30;;;6.60;;
19836;SDS011;10079;55.740;37.662;2022-07-06T18:01:07;7.83;;;6.83;;
19836;SDS011;10079;55.740;37.662;2022-07-06T18:03:50;9.50;;;8.40;;
19836;SDS011;10079;55.740;37.662;2022-07-06T18:06:39;8.90;;;7.63;;
19836;SDS011;10079;55.740;37.662;2022-07-06T18:09:21;10.40;;;7.43;;
19836;SDS011;10079;55.740;37.662;2022-07-06T18:12:02;8.33;;;7.53;;
19836;SDS011;10079;55.740;37.662;2022-07-06T18:14:45;9.50;;;8.00;;
19836;SDS011;10079;55.740;37.662;2022-07-06T18:17:30;8.03;;;7.23;;
19836;SDS011;10079;55.740;37.662;2022-07-06T18:20:15;8.97;;;7.60;;
19836;SDS011;10079;55.740;37.662;2022-07-06T18:22:56;9.30;;;7.50;;
19836;SDS011;10079;55.740;37.662;2022-07-06T18:25:37;10.63;;;7.83;;
19836;SDS011;10079;55.740;37.662;2022-07-06T18:28:19;10.77;;;7.73;;
19836;SDS011;10079;55.740;37.662;2022-07-06T18:31:12;11.33;;;9.07;;
19836;SDS011;10079;55.740;37.662;2022-07-06T18:33:57;12.37;;;9.13;;
19836;SDS011;10079;55.740;37.662;2022-07-06T18:36:38;10.13;;;8.77;;
19836;SDS011;10079;55.740;37.662;2022-07-06T18:39:20;10.40;;;7.73;;
19836;SDS011;10079;55.740;37.662;2022-07-06T18:42:01;9.30;;;8.40;;
19836;SDS011;10079;55.740;37.662;2022-07-06T18:44:52;9.07;;;8.17;;
19836;SDS011;10079;55.740;37.662;2022-07-06T18:47:33;10.57;;;7.57;;
19836;SDS011;10079;55.740;37.662;2022-07-06T18:50:15;9.87;;;7.50;;
19836;SDS011;10079;55.740;37.662;2022-07-06T18:52:59;11.03;;;8.03;;
19836;SDS011;10079;55.740;37.662;2022-07-06T18:55:53;11.47;;;8.47;;
19836;SDS011;10079;55.740;37.662;2022-07-06T19:20:00;11.70;;;8.40;;
19836;SDS011;10079;55.740;37.662;2022-07-06T19:22:42;11.45;;;8.27;;
19836;SDS011;10079;55.740;37.662;2022-07-06T19:25:26;11.93;;;9.20;;